Cabo Engano, Dominican Republic

9:04 AM AST on October 20, 2014 (GMT -0400)
Barrio Mejico, San Pedro de Macoris | Change Station
CLOSE
Current Station
Personal Weather Station
Location: San Pedro De Macoris, SAN PEDRO DE MACORIS
Elevation: 30 ft
Nearby Weather Stations

Elev 30 ft 18.47 °N, 69.32 °W | Updated 11 seconds ago

Scattered Clouds
Scattered Clouds
82.6 °F
Feels Like 91 °F
N
8.3
Wind Variable Wind from NNE
Gusts 9.8 mph

Today
High -- | Low -- °F
--% Chance of Precip.
Yesterday
High -- | Low -- °F
Precip. -- in
6:32 AM 6:11 PM
Waning Crescent, 11% visible
Pressure 29.98 in
Visibility 6.2 miles
Clouds Scattered Clouds 1800 ft
Heat Index 91 °F
Dew Point 77 °F
Humidity 82%
Rainfall 0.00 in
Snow Depth Not available.
UV 4 out of 12
Pollen Not available.
Air Quality Not available.
Flu Activity Not available.
METAR MDLR 201300Z 07005KT 9999 SCT018 27/23 Q1015

More Conditions Fewer Conditions

Pressure 29.98 in
Visibility 6.2 miles
Clouds Scattered Clouds 1800 ft
Heat Index 91 °F
Dew Point 77 °F
Humidity 82%
Rainfall 0.00 in
Snow Depth Not available.
UV 4 out of 12
Pollen Not available.
Air Quality Not available.
Flu Activity Not available.
METAR MDLR 201300Z 07005KT 9999 SCT018 27/23 Q1015

More Conditions Fewer Conditions

10-Day Weather Forecast

Almanac

Astronomy

Oct. 20, 2014 Rise Set
Actual Time 6:32 AM AST 6:11 PM AST
Civil Twilight 6:10 AM AST 6:33 PM AST
Nautical Twilight 5:44 AM AST 6:58 PM AST
Astronomical Twilight 5:19 AM AST 7:24 PM AST
Moon 3:44 AM AST 4:09 PM AST
Length of Visible Light 12h 22m
Length of Day
11h 38m
Tomorrow will be 0m 58s shorter.
Waning Crescent, 11% of the Moon is Illuminated
Today
Waning Crescent
Oct 23
New
Oct 30
First Quarter
Nov 6
Full
Nov 14
Last Quarter

Yesterday's Extremes

Country Highs Country Lows

Community

WunderPhotos

Upload Photos

1,763,363 photos uploaded!

Nearby

Snow Depth

Not available.

Earthquake Activity

City Distance Mag. Time & Date
No recent earthquake activity has been reported nearby.
Minimum magnitude displayed is 2.5.

Coastal Water Temperatures

Place Temperature
No Stations Reporting

Nearby Weather Stations